createdAt,value
2022-08-24T00:00:09.857Z,8.90
2022-08-24T00:02:37.323Z,8.50
2022-08-24T00:05:05.376Z,9.30
2022-08-24T00:07:32.790Z,7.87
2022-08-24T00:10:02.117Z,9.90
2022-08-24T00:12:31.315Z,8.67
2022-08-24T00:14:58.995Z,9.33
2022-08-24T00:17:26.555Z,7.50
2022-08-24T00:19:54.317Z,8.53
2022-08-24T00:22:21.729Z,8.37
2022-08-24T00:24:49.109Z,5.93
2022-08-24T00:27:17.892Z,7.57
2022-08-24T00:29:45.731Z,5.97
2022-08-24T00:32:13.091Z,6.30
2022-08-24T00:34:40.647Z,5.80
2022-08-24T00:37:13.373Z,6.37
2022-08-24T00:39:40.752Z,7.70
2022-08-24T00:42:08.204Z,7.03
2022-08-24T00:44:36.950Z,6.63
2022-08-24T00:47:06.152Z,8.47
2022-08-24T00:49:36.355Z,7.77
2022-08-24T00:52:06.220Z,6.77
2022-08-24T00:54:37.029Z,8.80
2022-08-24T00:57:06.748Z,8.20
2022-08-24T00:59:39.317Z,11.20
2022-08-24T01:02:15.378Z,8.07
2022-08-24T01:04:47.308Z,7.43
2022-08-24T01:07:14.689Z,8.70
2022-08-24T01:09:42.224Z,7.03
2022-08-24T01:12:10.039Z,8.47
2022-08-24T01:14:39.342Z,7.93
2022-08-24T01:17:25.240Z,7.10
2022-08-24T01:19:55.300Z,6.90
2022-08-24T01:22:38.051Z,8.93
2022-08-24T01:25:07.860Z,14.43
2022-08-24T01:27:35.682Z,6.97
2022-08-24T01:30:06.207Z,6.60
2022-08-24T01:32:33.849Z,7.40
2022-08-24T01:35:01.546Z,8.23
2022-08-24T01:37:30.399Z,7.60
2022-08-24T01:39:59.112Z,8.63
2022-08-24T01:42:29.820Z,7.57
2022-08-24T01:44:57.233Z,6.13
2022-08-24T01:47:24.651Z,8.43
2022-08-24T01:49:52.110Z,8.10
2022-08-24T01:52:24.025Z,7.47
2022-08-24T01:54:52.561Z,5.73
2022-08-24T01:57:20.407Z,6.50
2022-08-24T01:59:51.851Z,5.40
2022-08-24T02:02:21.303Z,6.03
2022-08-24T02:04:48.929Z,9.10
2022-08-24T02:07:16.393Z,6.03
2022-08-24T02:09:43.852Z,5.83
2022-08-24T02:12:11.412Z,7.53
2022-08-24T02:14:39.201Z,11.40
2022-08-24T02:17:08.741Z,9.70
2022-08-24T02:19:36.365Z,6.00
2022-08-24T02:22:04.114Z,5.73
2022-08-24T02:24:31.604Z,5.77
2022-08-24T02:26:59.188Z,8.53
2022-08-24T02:29:26.680Z,7.63
2022-08-24T02:31:54.123Z,6.37
2022-08-24T02:34:23.716Z,9.57
2022-08-24T02:36:53.621Z,8.30
2022-08-24T02:39:22.976Z,5.27
2022-08-24T02:41:51.985Z,5.70
2022-08-24T02:44:20.095Z,4.90
2022-08-24T02:46:48.534Z,7.30
2022-08-24T02:49:18.865Z,7.17
2022-08-24T02:51:48.274Z,5.83
2022-08-24T02:54:19.476Z,6.23
2022-08-24T02:56:48.941Z,8.37
2022-08-24T02:59:17.054Z,6.90
2022-08-24T03:01:45.441Z,5.27
2022-08-24T03:04:13.709Z,5.23
2022-08-24T03:06:42.318Z,4.90
2022-08-24T03:09:11.076Z,4.87
2022-08-24T03:11:39.163Z,7.17
2022-08-24T03:14:10.412Z,6.77
2022-08-24T03:16:38.518Z,6.80
2022-08-24T03:19:05.965Z,6.27
2022-08-24T03:21:36.029Z,7.60
2022-08-24T03:24:04.062Z,11.10
2022-08-24T03:26:33.467Z,5.17
2022-08-24T03:29:01.261Z,8.70
2022-08-24T03:31:29.055Z,6.07
2022-08-24T03:33:56.461Z,5.93
2022-08-24T03:36:24.193Z,7.17
2022-08-24T03:38:51.581Z,5.67
2022-08-24T03:41:19.919Z,5.73
2022-08-24T03:43:48.922Z,6.80
2022-08-24T03:46:25.082Z,5.63
2022-08-24T03:48:54.399Z,5.50
2022-08-24T03:51:23.321Z,9.50
2022-08-24T03:53:51.997Z,6.80
2022-08-24T03:56:21.043Z,7.30
2022-08-24T03:58:50.120Z,8.23
2022-08-24T04:01:18.156Z,8.40
2022-08-24T04:03:47.100Z,10.23
2022-08-24T04:06:17.688Z,9.87
2022-08-24T04:08:45.501Z,12.93
2022-08-24T04:11:13.503Z,11.33
2022-08-24T04:13:40.941Z,12.07
2022-08-24T04:16:10.792Z,11.50
2022-08-24T04:18:38.305Z,8.20
2022-08-24T04:21:06.265Z,11.03
2022-08-24T04:23:46.606Z,12.30
2022-08-24T04:26:15.971Z,15.13
2022-08-24T04:28:43.365Z,9.70
2022-08-24T04:31:12.153Z,9.83
2022-08-24T04:33:42.865Z,10.67
2022-08-24T04:36:11.857Z,10.80
2022-08-24T04:38:42.430Z,12.40
2022-08-24T04:41:36.106Z,7.17
2022-08-24T04:44:04.535Z,7.77
2022-08-24T04:46:33.584Z,8.57
2022-08-24T04:49:00.971Z,7.37
2022-08-24T04:51:30.661Z,8.77
2022-08-24T04:54:04.033Z,9.43
2022-08-24T04:56:31.408Z,5.43
2022-08-24T04:58:58.840Z,6.23
2022-08-24T05:01:27.840Z,7.93
2022-08-24T05:03:58.187Z,8.47
2022-08-24T05:06:27.097Z,6.90
2022-08-24T05:08:54.701Z,7.10
2022-08-24T05:11:23.936Z,8.07
2022-08-24T05:13:52.581Z,7.10
2022-08-24T05:16:20.469Z,11.80
2022-08-24T05:18:48.376Z,6.53
2022-08-24T05:21:23.372Z,7.50
2022-08-24T05:23:51.727Z,7.73
2022-08-24T05:26:21.619Z,6.73
2022-08-24T05:28:50.526Z,6.53
2022-08-24T05:31:19.881Z,8.47
2022-08-24T05:33:48.061Z,7.13
2022-08-24T05:36:17.123Z,8.40
2022-08-24T05:38:46.627Z,7.63
2022-08-24T05:41:14.342Z,8.80
2022-08-24T05:43:43.871Z,10.27
2022-08-24T05:46:11.417Z,12.10
2022-08-24T05:48:38.897Z,8.57
2022-08-24T05:51:09.937Z,8.33
2022-08-24T05:53:48.441Z,7.17
2022-08-24T05:56:17.181Z,6.47
2022-08-24T05:58:45.531Z,9.97
2022-08-24T06:01:14.444Z,7.57
2022-08-24T06:03:42.483Z,8.27
2022-08-24T06:06:13.530Z,7.33
2022-08-24T06:08:42.100Z,7.83
2022-08-24T06:11:13.021Z,6.93
2022-08-24T06:13:40.467Z,8.43
2022-08-24T06:16:21.237Z,8.77
2022-08-24T06:18:50.637Z,9.13
2022-08-24T06:21:19.481Z,8.23
2022-08-24T06:23:48.404Z,8.73
2022-08-24T06:26:34.746Z,8.10
2022-08-24T06:29:02.365Z,8.57
2022-08-24T06:31:39.464Z,9.43
2022-08-24T06:34:09.743Z,9.83
2022-08-24T06:36:39.220Z,8.77
2022-08-24T06:39:07.816Z,8.00
2022-08-24T06:41:41.799Z,8.90
2022-08-24T06:44:12.163Z,11.00
2022-08-24T06:46:48.433Z,9.80
2022-08-24T06:49:15.953Z,10.83
2022-08-24T06:51:46.351Z,10.23
2022-08-24T06:54:16.477Z,8.50
2022-08-24T06:56:46.139Z,7.63
2022-08-24T06:59:13.565Z,11.23
2022-08-24T07:01:42.466Z,9.67
2022-08-24T07:04:10.003Z,7.63
2022-08-24T07:07:00.597Z,12.70
2022-08-24T07:09:27.957Z,7.50
2022-08-24T07:11:56.695Z,7.93
2022-08-24T07:14:24.725Z,6.73
2022-08-24T07:16:52.472Z,9.83
2022-08-24T07:19:20.068Z,7.80
2022-08-24T07:21:47.507Z,9.97
2022-08-24T07:24:15.126Z,8.93
2022-08-24T07:26:42.605Z,9.43
2022-08-24T07:29:43.746Z,13.53
2022-08-24T07:32:04.188Z,8.70
2022-08-24T07:34:35.665Z,13.47
2022-08-24T07:37:03.731Z,10.07
2022-08-24T07:39:31.284Z,9.97
2022-08-24T07:42:13.098Z,11.20
2022-08-24T07:44:43.749Z,8.83
2022-08-24T07:47:36.400Z,9.93
2022-08-24T07:49:59.236Z,7.80
2022-08-24T07:52:27.881Z,9.23
2022-08-24T07:54:55.339Z,16.63
2022-08-24T07:57:22.777Z,9.87
2022-08-24T07:59:51.623Z,11.30
2022-08-24T08:02:19.480Z,11.40
2022-08-24T08:04:51.564Z,7.20
2022-08-24T08:07:19.685Z,14.93
2022-08-24T08:09:50.167Z,9.07
2022-08-24T08:12:18.943Z,7.60
2022-08-24T08:14:57.654Z,8.37
2022-08-24T08:17:25.329Z,10.47
2022-08-24T08:19:52.875Z,7.97
2022-08-24T08:22:38.137Z,11.70
2022-08-24T08:25:31.713Z,8.97
2022-08-24T08:28:08.036Z,10.60
2022-08-24T08:30:47.983Z,13.90
2022-08-24T08:33:16.159Z,9.90
2022-08-24T08:35:44.293Z,14.77
2022-08-24T08:38:12.580Z,12.37
2022-08-24T08:40:44.313Z,11.67
2022-08-24T08:43:21.668Z,8.70
2022-08-24T08:46:01.776Z,11.13
2022-08-24T08:48:58.151Z,11.43
2022-08-24T08:51:40.042Z,11.20
2022-08-24T08:54:26.347Z,12.13
2022-08-24T08:57:02.412Z,11.10
2022-08-24T08:59:38.053Z,9.60
2022-08-24T09:02:17.423Z,13.90
2022-08-24T09:05:00.074Z,11.70
2022-08-24T09:07:34.435Z,8.60
2022-08-24T09:10:21.057Z,9.20
2022-08-24T09:12:54.566Z,15.43
2022-08-24T09:15:30.173Z,8.90
2022-08-24T09:18:06.457Z,9.70
2022-08-24T09:20:54.337Z,11.87
2022-08-24T09:23:25.527Z,13.63
2022-08-24T09:25:58.847Z,13.20
2022-08-24T09:28:43.978Z,10.10
2022-08-24T09:31:25.342Z,9.90
2022-08-24T09:33:58.611Z,8.90
2022-08-24T09:36:30.146Z,9.80
2022-08-24T09:38:59.459Z,12.33
2022-08-24T09:41:42.724Z,12.30
2022-08-24T09:44:32.404Z,9.67
2022-08-24T09:47:17.494Z,11.20
2022-08-24T09:50:00.269Z,10.67
2022-08-24T09:52:46.325Z,9.27
2022-08-24T09:55:25.641Z,11.13
2022-08-24T09:58:01.130Z,13.90
2022-08-24T10:00:31.849Z,11.60
2022-08-24T10:03:02.554Z,12.57
2022-08-24T10:05:42.709Z,15.20
2022-08-24T10:08:16.673Z,10.87
2022-08-24T10:10:49.323Z,11.97
2022-08-24T10:13:21.529Z,10.47
2022-08-24T10:15:52.827Z,11.90
2022-08-24T10:18:26.293Z,9.97
2022-08-24T10:21:02.065Z,11.07
2022-08-24T10:23:44.702Z,13.40
2022-08-24T10:26:14.528Z,11.77
2022-08-24T10:28:49.788Z,9.47
2022-08-24T10:31:20.107Z,9.47
2022-08-24T10:33:56.057Z,8.97
2022-08-24T10:36:37.421Z,14.93
2022-08-24T10:39:31.115Z,10.27
2022-08-24T10:42:10.546Z,12.23
2022-08-24T10:44:48.652Z,10.17
2022-08-24T10:47:21.491Z,8.97
2022-08-24T10:50:09.369Z,9.30
2022-08-24T10:52:52.011Z,12.47
2022-08-24T10:55:22.457Z,11.77
2022-08-24T10:57:59.922Z,13.50
2022-08-24T11:00:28.615Z,12.63
2022-08-24T11:03:06.614Z,10.57
2022-08-24T11:05:37.913Z,10.07
2022-08-24T11:08:06.598Z,9.47
2022-08-24T11:10:36.849Z,10.87
2022-08-24T11:13:15.272Z,11.40
2022-08-24T11:15:47.882Z,11.47
2022-08-24T11:18:15.437Z,9.77
2022-08-24T11:20:46.795Z,10.73
2022-08-24T11:23:16.799Z,19.23
2022-08-24T11:25:52.980Z,14.60
2022-08-24T11:28:22.095Z,13.90
2022-08-24T11:30:49.814Z,13.93
2022-08-24T11:33:28.921Z,10.80
2022-08-24T11:35:56.329Z,20.13
2022-08-24T11:38:25.937Z,15.00
2022-08-24T11:40:56.740Z,15.27
2022-08-24T11:43:31.321Z,14.20
2022-08-24T11:46:04.115Z,15.50
2022-08-24T11:48:36.205Z,16.33
2022-08-24T11:51:08.615Z,13.53
2022-08-24T11:56:18.684Z,10.33
2022-08-24T11:58:53.003Z,10.90
2022-08-24T12:01:24.307Z,15.10
2022-08-24T12:04:00.992Z,12.47
2022-08-24T12:06:35.529Z,17.10
2022-08-24T12:09:06.707Z,11.40
2022-08-24T12:11:39.648Z,12.93
2022-08-24T12:14:10.400Z,9.87
2022-08-24T12:16:42.091Z,12.37
2022-08-24T12:19:10.396Z,12.40
2022-08-24T12:21:39.288Z,14.83
2022-08-24T12:24:10.108Z,14.80
2022-08-24T12:26:39.956Z,11.50
2022-08-24T12:29:08.371Z,11.87
2022-08-24T12:31:39.136Z,13.53
2022-08-24T12:34:09.810Z,15.57
2022-08-24T12:36:40.065Z,15.30
2022-08-24T12:39:11.116Z,13.17
2022-08-24T12:41:45.102Z,14.97
2022-08-24T12:44:13.453Z,15.50
2022-08-24T12:46:43.036Z,13.00
2022-08-24T12:49:15.558Z,15.20
2022-08-24T12:51:51.573Z,14.50
2022-08-24T12:54:26.733Z,14.00
2022-08-24T12:57:06.225Z,13.37
2022-08-24T12:59:38.159Z,15.20
2022-08-24T13:02:08.134Z,12.20
2022-08-24T13:04:38.595Z,14.53
2022-08-24T13:07:07.930Z,15.37
2022-08-24T13:09:36.298Z,11.83
2022-08-24T13:12:18.991Z,16.63
2022-08-24T13:15:16.297Z,16.00
2022-08-24T13:17:45.070Z,12.77
2022-08-24T13:20:17.555Z,13.17
2022-08-24T13:22:49.829Z,13.80
2022-08-24T13:25:25.781Z,10.23
2022-08-24T13:28:06.833Z,9.60
2022-08-24T13:30:49.179Z,10.93
2022-08-24T13:33:20.573Z,16.60
2022-08-24T13:35:57.276Z,14.37
2022-08-24T13:38:42.665Z,10.77
2022-08-24T13:41:13.664Z,12.40
2022-08-24T13:43:44.556Z,13.13
2022-08-24T13:46:18.506Z,13.20
2022-08-24T13:48:53.813Z,11.63
2022-08-24T13:51:34.535Z,8.90
2022-08-24T13:54:20.001Z,11.33
2022-08-24T13:56:55.329Z,10.27
2022-08-24T13:59:34.693Z,9.60
2022-08-24T14:02:06.510Z,12.43
2022-08-24T14:04:49.832Z,12.77
2022-08-24T14:07:22.221Z,12.27
2022-08-24T14:09:59.152Z,12.37
2022-08-24T14:12:46.241Z,12.40
2022-08-24T14:15:18.035Z,10.90
2022-08-24T14:17:55.767Z,11.33
2022-08-24T14:20:38.473Z,11.10
2022-08-24T14:23:10.458Z,14.47
2022-08-24T14:25:38.013Z,12.50
2022-08-24T14:28:26.307Z,11.00
2022-08-24T14:31:16.827Z,12.77
2022-08-24T14:33:48.784Z,10.77
2022-08-24T14:36:19.065Z,12.07
2022-08-24T14:38:54.032Z,10.27
2022-08-24T14:41:26.069Z,10.60
2022-08-24T14:44:09.339Z,12.33
2022-08-24T14:46:40.371Z,8.33
2022-08-24T14:49:13.810Z,11.53
2022-08-24T14:51:48.043Z,9.83
2022-08-24T14:54:25.555Z,14.63
2022-08-24T14:56:59.180Z,10.90
2022-08-24T14:59:34.105Z,12.33
2022-08-24T15:02:18.568Z,10.67
2022-08-24T15:04:47.973Z,10.27
2022-08-24T15:07:26.411Z,12.43
2022-08-24T15:09:56.289Z,8.57
2022-08-24T15:12:29.998Z,12.70
2022-08-24T15:15:02.985Z,10.87
2022-08-24T15:17:36.748Z,10.10
2022-08-24T15:20:07.771Z,11.60
2022-08-24T15:22:40.899Z,10.83
2022-08-24T15:25:16.395Z,9.93
2022-08-24T15:27:49.891Z,13.47
2022-08-24T15:30:23.172Z,11.97
2022-08-24T15:32:53.546Z,8.50
2022-08-24T15:35:26.436Z,8.50
2022-08-24T15:37:53.855Z,9.93
2022-08-24T15:40:26.978Z,10.07
2022-08-24T15:42:55.141Z,9.53
2022-08-24T15:45:22.966Z,10.53
2022-08-24T15:47:51.984Z,10.30
2022-08-24T15:50:25.265Z,11.17
2022-08-24T15:52:55.598Z,10.63
2022-08-24T15:55:35.681Z,12.77
2022-08-24T15:58:36.647Z,12.13
2022-08-24T16:01:36.685Z,11.57
2022-08-24T16:04:08.260Z,16.87
2022-08-24T16:06:37.555Z,10.23
2022-08-24T16:09:06.380Z,9.83
2022-08-24T16:11:38.575Z,13.00
2022-08-24T16:14:07.375Z,13.70
2022-08-24T16:16:37.864Z,11.43
2022-08-24T16:19:08.485Z,10.60
2022-08-24T16:21:38.825Z,11.47
2022-08-24T16:24:08.927Z,12.50
2022-08-24T16:29:45.967Z,13.30
2022-08-24T16:32:19.177Z,19.23
2022-08-24T16:34:50.629Z,14.00
2022-08-24T16:37:19.636Z,15.20
2022-08-24T16:39:47.355Z,15.70
2022-08-24T16:42:22.628Z,14.03
2022-08-24T16:44:51.641Z,12.17
2022-08-24T16:47:19.226Z,14.33
2022-08-24T16:49:46.731Z,13.97
2022-08-24T16:52:14.479Z,15.00
2022-08-24T16:54:42.138Z,13.83
2022-08-24T16:57:13.176Z,14.10
2022-08-24T16:59:42.388Z,15.33
2022-08-24T17:02:11.532Z,17.53
2022-08-24T17:04:39.066Z,15.60
2022-08-24T17:07:08.145Z,16.87
2022-08-24T17:09:37.476Z,14.63
2022-08-24T17:12:05.446Z,16.53
2022-08-24T17:14:32.912Z,19.90
2022-08-24T17:17:00.506Z,17.57
2022-08-24T17:19:30.425Z,16.33
2022-08-24T17:21:58.075Z,14.07
2022-08-24T17:24:25.772Z,15.00
2022-08-24T17:26:54.632Z,13.73
2022-08-24T17:29:22.310Z,16.27
2022-08-24T17:31:50.651Z,19.83
2022-08-24T17:34:19.352Z,14.53
2022-08-24T17:36:48.841Z,15.27
2022-08-24T17:39:17.354Z,16.60
2022-08-24T17:41:45.065Z,12.73
2022-08-24T17:44:15.205Z,16.23
2022-08-24T17:46:50.348Z,16.27
2022-08-24T17:49:18.331Z,15.53
2022-08-24T17:51:45.785Z,14.00
2022-08-24T17:54:14.615Z,14.60
2022-08-24T17:56:44.970Z,14.77
2022-08-24T17:59:23.791Z,18.00
2022-08-24T18:01:52.915Z,14.37
2022-08-24T18:04:21.503Z,15.73
2022-08-24T18:06:49.411Z,16.20
2022-08-24T18:09:19.045Z,14.70
2022-08-24T18:11:46.428Z,15.60
2022-08-24T18:14:13.961Z,14.47
2022-08-24T18:16:41.561Z,14.87
2022-08-24T18:19:09.503Z,13.40
2022-08-24T18:21:36.875Z,15.50
2022-08-24T18:24:04.545Z,15.00
2022-08-24T18:26:33.799Z,14.13
2022-08-24T18:29:12.399Z,16.30
2022-08-24T18:31:41.969Z,23.40
2022-08-24T18:34:09.596Z,14.97
2022-08-24T18:36:37.025Z,14.53
2022-08-24T18:39:07.181Z,14.57
2022-08-24T18:41:37.900Z,17.43
2022-08-24T18:44:05.915Z,15.53
2022-08-24T18:46:33.488Z,15.80
2022-08-24T18:49:01.345Z,15.87
2022-08-24T18:51:34.177Z,15.33
2022-08-24T18:54:03.013Z,15.77
2022-08-24T18:56:30.431Z,14.37
2022-08-24T18:58:59.234Z,14.47
2022-08-24T19:01:27.873Z,11.93
2022-08-24T19:03:55.738Z,12.93
2022-08-24T19:06:23.337Z,14.23
2022-08-24T19:08:50.734Z,14.03
2022-08-24T19:11:19.880Z,14.07
2022-08-24T19:13:47.291Z,13.43
2022-08-24T19:16:16.108Z,14.73
2022-08-24T19:18:43.781Z,14.47
2022-08-24T19:21:11.227Z,14.30
2022-08-24T19:23:39.085Z,16.43
2022-08-24T19:26:07.277Z,18.23
2022-08-24T19:28:34.795Z,13.70
2022-08-24T19:31:03.660Z,14.97
2022-08-24T19:33:35.180Z,15.67
2022-08-24T19:36:02.876Z,13.40
2022-08-24T19:38:30.563Z,12.13
2022-08-24T19:40:58.732Z,14.33
2022-08-24T19:43:27.079Z,13.33
2022-08-24T19:46:05.403Z,14.23
2022-08-24T19:48:35.311Z,13.53
2022-08-24T19:51:03.977Z,13.70
2022-08-24T19:53:33.479Z,13.23
2022-08-24T19:56:00.940Z,13.67
2022-08-24T19:58:30.365Z,12.13
2022-08-24T20:00:58.908Z,13.27
2022-08-24T20:03:26.339Z,13.20
2022-08-24T20:05:55.161Z,12.77
2022-08-24T20:08:22.998Z,12.47
2022-08-24T20:10:52.849Z,12.53
2022-08-24T20:13:20.235Z,16.13
2022-08-24T20:15:47.639Z,13.57
2022-08-24T20:18:15.378Z,14.37
2022-08-24T20:20:43.315Z,18.87
2022-08-24T20:23:12.269Z,16.40
2022-08-24T20:25:40.379Z,20.47
2022-08-24T20:30:56.173Z,14.27
2022-08-24T20:33:24.773Z,16.63
2022-08-24T20:35:52.341Z,14.03
2022-08-24T20:38:21.656Z,16.33
2022-08-24T20:40:49.495Z,11.73
2022-08-24T20:43:17.031Z,15.57
2022-08-24T20:45:45.350Z,14.53
2022-08-24T20:48:13.590Z,13.37
2022-08-24T20:50:43.393Z,13.77
2022-08-24T20:53:11.706Z,14.10
2022-08-24T20:55:41.391Z,18.43
2022-08-24T20:58:08.981Z,16.20
2022-08-24T21:00:36.751Z,18.13
2022-08-24T21:03:04.397Z,16.17
2022-08-24T21:05:31.950Z,16.87
2022-08-24T21:07:59.609Z,12.67
2022-08-24T21:10:27.523Z,17.27
2022-08-24T21:12:56.419Z,15.47
2022-08-24T21:15:24.177Z,15.37
2022-08-24T21:17:51.755Z,14.17
2022-08-24T21:20:20.140Z,14.57
2022-08-24T21:22:47.639Z,14.80
2022-08-24T21:25:16.891Z,16.23
2022-08-24T21:27:45.821Z,20.63
2022-08-24T21:30:16.750Z,22.90
2022-08-24T21:33:02.253Z,13.63
2022-08-24T21:35:29.785Z,19.17
2022-08-24T21:37:57.245Z,13.53
2022-08-24T21:40:26.253Z,14.53
2022-08-24T21:42:53.756Z,13.03
2022-08-24T21:45:22.472Z,18.93
2022-08-24T21:47:49.876Z,17.87
2022-08-24T21:50:17.884Z,19.97
2022-08-24T21:52:45.673Z,15.67
2022-08-24T21:55:18.792Z,19.97
2022-08-24T21:57:46.347Z,15.80
2022-08-24T22:00:16.097Z,16.93
2022-08-24T22:02:45.058Z,16.37
2022-08-24T22:05:12.668Z,18.30
2022-08-24T22:07:40.045Z,15.10
2022-08-24T22:10:08.257Z,18.50
2022-08-24T22:12:35.952Z,17.03
2022-08-24T22:15:03.603Z,19.03
2022-08-24T22:17:31.032Z,15.67
2022-08-24T22:19:59.737Z,13.93
2022-08-24T22:22:27.837Z,15.10
2022-08-24T22:24:55.196Z,17.33
2022-08-24T22:27:24.997Z,15.10
2022-08-24T22:29:52.981Z,14.80
2022-08-24T22:32:20.560Z,14.23
2022-08-24T22:34:47.963Z,14.47
2022-08-24T22:37:17.080Z,17.63
2022-08-24T22:39:46.109Z,16.20
2022-08-24T22:42:13.679Z,12.93
2022-08-24T22:44:41.057Z,13.10
2022-08-24T22:47:13.199Z,14.67
2022-08-24T22:49:44.254Z,14.37
2022-08-24T22:52:12.933Z,13.83
2022-08-24T22:54:41.838Z,15.03
2022-08-24T22:57:09.309Z,13.00
2022-08-24T22:59:38.456Z,13.20
2022-08-24T23:02:07.004Z,16.40
2022-08-24T23:04:35.997Z,13.60
2022-08-24T23:07:04.208Z,14.33
2022-08-24T23:09:36.641Z,14.47
2022-08-24T23:12:14.807Z,17.70
2022-08-24T23:14:43.419Z,13.27
2022-08-24T23:17:11.041Z,17.53
2022-08-24T23:20:04.234Z,14.77
2022-08-24T23:22:32.403Z,14.53
2022-08-24T23:25:00.370Z,12.30
2022-08-24T23:27:37.173Z,13.80
2022-08-24T23:30:06.304Z,16.40
2022-08-24T23:32:33.662Z,17.20
2022-08-24T23:35:01.191Z,20.43
2022-08-24T23:37:28.959Z,15.57
2022-08-24T23:39:56.413Z,15.60
2022-08-24T23:42:23.855Z,17.60
2022-08-24T23:44:52.724Z,14.60
2022-08-24T23:47:21.001Z,17.00
2022-08-24T23:49:48.378Z,18.13
2022-08-24T23:52:26.719Z,20.47
2022-08-24T23:54:56.250Z,18.83
2022-08-24T23:57:43.129Z,14.77
